Terminal Aerodrome Forecast
Issued by NWS Nashville, TN

Current Version | Previous Version | Text Only | Print | Product List | Glossary On
Versions: 1 2 3 4 5 6 7 8 9 10 11 12 13 14 15 16
215
FTUS44 KOHX 101720
TAFBNA
TAF
KBNA 101720Z 1018/1118 09005KT P6SM BKN250
     FM110600 16005KT P6SM BKN250
     FM111600 18012KT P6SM BKN250=

USA.gov is the U.S. government's official web portal to all federal, state and local government web resources and services.